sensor_id;sensor_type;location;lat;lon;timestamp;P1;durP1;ratioP1;P2;durP2;ratioP2
9972;SDS011;5027;53.560;10.062;2023-01-29T00:02:00;15.00;;;13.50;;
9972;SDS011;5027;53.560;10.062;2023-01-29T00:04:27;15.77;;;13.23;;
9972;SDS011;5027;53.560;10.062;2023-01-29T00:06:53;17.27;;;13.67;;
9972;SDS011;5027;53.560;10.062;2023-01-29T00:09:20;15.70;;;12.87;;
9972;SDS011;5027;53.560;10.062;2023-01-29T00:11:47;6.43;;;5.87;;
9972;SDS011;5027;53.560;10.062;2023-01-29T00:14:13;16.70;;;12.57;;
9972;SDS011;5027;53.560;10.062;2023-01-29T00:16:40;16.03;;;14.03;;
9972;SDS011;5027;53.560;10.062;2023-01-29T00:19:07;14.50;;;12.47;;
9972;SDS011;5027;53.560;10.062;2023-01-29T00:21:33;14.07;;;12.73;;
9972;SDS011;5027;53.560;10.062;2023-01-29T00:24:00;13.93;;;12.43;;
9972;SDS011;5027;53.560;10.062;2023-01-29T00:26:27;14.07;;;12.57;;
9972;SDS011;5027;53.560;10.062;2023-01-29T00:28:54;16.53;;;12.30;;
9972;SDS011;5027;53.560;10.062;2023-01-29T00:31:27;14.60;;;12.43;;
9972;SDS011;5027;53.560;10.062;2023-01-29T00:33:54;14.33;;;12.83;;
9972;SDS011;5027;53.560;10.062;2023-01-29T00:36:20;14.20;;;12.00;;
9972;SDS011;5027;53.560;10.062;2023-01-29T00:38:53;13.77;;;12.47;;
9972;SDS011;5027;53.560;10.062;2023-01-29T00:41:27;13.93;;;12.13;;
9972;SDS011;5027;53.560;10.062;2023-01-29T00:44:14;15.40;;;13.77;;
9972;SDS011;5027;53.560;10.062;2023-01-29T00:47:00;14.60;;;13.13;;
9972;SDS011;5027;53.560;10.062;2023-01-29T00:49:27;15.20;;;12.87;;
9972;SDS011;5027;53.560;10.062;2023-01-29T00:51:56;14.30;;;12.70;;
9972;SDS011;5027;53.560;10.062;2023-01-29T00:54:42;13.53;;;12.13;;
9972;SDS011;5027;53.560;10.062;2023-01-29T00:57:09;13.20;;;11.80;;
9972;SDS011;5027;53.560;10.062;2023-01-29T00:59:36;14.40;;;12.23;;
9972;SDS011;5027;53.560;10.062;2023-01-29T01:02:02;13.50;;;12.10;;
9972;SDS011;5027;53.560;10.062;2023-01-29T01:04:48;12.17;;;9.20;;
9972;SDS011;5027;53.560;10.062;2023-01-29T01:07:15;14.47;;;11.57;;
9972;SDS011;5027;53.560;10.062;2023-01-29T01:09:42;14.63;;;12.00;;
9972;SDS011;5027;53.560;10.062;2023-01-29T01:12:27;14.10;;;11.23;;
9972;SDS011;5027;53.560;10.062;2023-01-29T01:14:54;12.40;;;11.03;;
9972;SDS011;5027;53.560;10.062;2023-01-29T01:17:21;14.13;;;11.13;;
9972;SDS011;5027;53.560;10.062;2023-01-29T01:19:47;17.43;;;12.70;;
9972;SDS011;5027;53.560;10.062;2023-01-29T01:22:14;15.47;;;12.10;;
9972;SDS011;5027;53.560;10.062;2023-01-29T01:24:42;12.57;;;10.87;;
9972;SDS011;5027;53.560;10.062;2023-01-29T01:27:09;15.57;;;12.10;;
9972;SDS011;5027;53.560;10.062;2023-01-29T01:29:35;16.10;;;11.60;;
9972;SDS011;5027;53.560;10.062;2023-01-29T01:32:02;12.03;;;10.77;;
9972;SDS011;5027;53.560;10.062;2023-01-29T01:34:29;13.60;;;12.10;;
9972;SDS011;5027;53.560;10.062;2023-01-29T01:36:56;12.73;;;11.43;;
9972;SDS011;5027;53.560;10.062;2023-01-29T01:39:23;15.50;;;11.60;;
9972;SDS011;5027;53.560;10.062;2023-01-29T01:41:50;15.97;;;11.60;;
9972;SDS011;5027;53.560;10.062;2023-01-29T01:47:16;11.27;;;9.90;;
9972;SDS011;5027;53.560;10.062;2023-01-29T01:49:49;12.67;;;10.17;;
9972;SDS011;5027;53.560;10.062;2023-01-29T01:52:16;11.90;;;10.30;;
9972;SDS011;5027;53.560;10.062;2023-01-29T01:54:44;12.77;;;10.93;;
9972;SDS011;5027;53.560;10.062;2023-01-29T01:57:13;14.00;;;10.27;;
9972;SDS011;5027;53.560;10.062;2023-01-29T01:59:47;12.17;;;10.57;;
9972;SDS011;5027;53.560;10.062;2023-01-29T02:02:18;11.43;;;10.17;;
9972;SDS011;5027;53.560;10.062;2023-01-29T02:05:04;16.80;;;10.40;;
9972;SDS011;5027;53.560;10.062;2023-01-29T02:07:51;13.17;;;9.37;;
9972;SDS011;5027;53.560;10.062;2023-01-29T02:10:46;13.47;;;10.10;;
9972;SDS011;5027;53.560;10.062;2023-01-29T02:13:14;13.07;;;10.27;;
9972;SDS011;5027;53.560;10.062;2023-01-29T02:15:46;12.07;;;9.87;;
9972;SDS011;5027;53.560;10.062;2023-01-29T02:18:14;13.33;;;10.30;;
9972;SDS011;5027;53.560;10.062;2023-01-29T02:20:46;12.67;;;10.23;;
9972;SDS011;5027;53.560;10.062;2023-01-29T02:23:50;14.13;;;10.27;;
9972;SDS011;5027;53.560;10.062;2023-01-29T02:29:10;14.40;;;9.90;;
9972;SDS011;5027;53.560;10.062;2023-01-29T02:34:46;13.07;;;9.93;;
9972;SDS011;5027;53.560;10.062;2023-01-29T02:37:40;12.60;;;10.17;;
9972;SDS011;5027;53.560;10.062;2023-01-29T02:40:19;13.17;;;10.30;;
9972;SDS011;5027;53.560;10.062;2023-01-29T02:43:07;12.83;;;9.63;;
9972;SDS011;5027;53.560;10.062;2023-01-29T02:45:49;11.00;;;9.90;;
9972;SDS011;5027;53.560;10.062;2023-01-29T02:48:26;12.30;;;9.80;;
9972;SDS011;5027;53.560;10.062;2023-01-29T02:51:03;13.17;;;9.33;;
9972;SDS011;5027;53.560;10.062;2023-01-29T02:53:41;10.53;;;9.30;;
9972;SDS011;5027;53.560;10.062;2023-01-29T02:56:24;11.53;;;9.60;;
9972;SDS011;5027;53.560;10.062;2023-01-29T02:59:04;8.60;;;6.97;;
9972;SDS011;5027;53.560;10.062;2023-01-29T03:04:36;10.63;;;9.43;;
9972;SDS011;5027;53.560;10.062;2023-01-29T03:07:17;11.00;;;9.70;;
9972;SDS011;5027;53.560;10.062;2023-01-29T03:10:20;9.60;;;7.10;;
9972;SDS011;5027;53.560;10.062;2023-01-29T03:12:56;11.97;;;10.03;;
9972;SDS011;5027;53.560;10.062;2023-01-29T03:15:28;10.17;;;8.33;;
9972;SDS011;5027;53.560;10.062;2023-01-29T03:18:20;13.53;;;9.53;;
9972;SDS011;5027;53.560;10.062;2023-01-29T03:20:57;12.87;;;9.60;;
9972;SDS011;5027;53.560;10.062;2023-01-29T03:23:30;11.70;;;9.83;;
9972;SDS011;5027;53.560;10.062;2023-01-29T03:26:20;14.40;;;9.70;;
9972;SDS011;5027;53.560;10.062;2023-01-29T03:29:06;11.87;;;9.50;;
9972;SDS011;5027;53.560;10.062;2023-01-29T03:31:53;12.80;;;9.40;;
9972;SDS011;5027;53.560;10.062;2023-01-29T03:34:42;12.40;;;10.30;;
9972;SDS011;5027;53.560;10.062;2023-01-29T03:37:19;11.07;;;9.83;;
9972;SDS011;5027;53.560;10.062;2023-01-29T03:39:54;10.67;;;9.57;;
9972;SDS011;5027;53.560;10.062;2023-01-29T03:42:23;11.13;;;9.20;;
9972;SDS011;5027;53.560;10.062;2023-01-29T03:47:53;9.77;;;8.77;;
9972;SDS011;5027;53.560;10.062;2023-01-29T03:53:16;11.47;;;9.37;;
9972;SDS011;5027;53.560;10.062;2023-01-29T03:56:33;9.50;;;8.37;;
9972;SDS011;5027;53.560;10.062;2023-01-29T04:02:05;5.50;;;4.83;;
9972;SDS011;5027;53.560;10.062;2023-01-29T04:04:37;5.50;;;4.87;;
9972;SDS011;5027;53.560;10.062;2023-01-29T04:07:15;10.97;;;8.90;;
9972;SDS011;5027;53.560;10.062;2023-01-29T04:10:01;9.43;;;7.93;;
9972;SDS011;5027;53.560;10.062;2023-01-29T04:13:10;11.87;;;9.00;;
9972;SDS011;5027;53.560;10.062;2023-01-29T04:15:33;11.80;;;8.17;;
9972;SDS011;5027;53.560;10.062;2023-01-29T04:18:05;10.27;;;8.47;;
9972;SDS011;5027;53.560;10.062;2023-01-29T04:20:43;8.80;;;7.93;;
9972;SDS011;5027;53.560;10.062;2023-01-29T04:23:20;9.70;;;8.10;;
9972;SDS011;5027;53.560;10.062;2023-01-29T04:25:52;10.10;;;9.00;;
9972;SDS011;5027;53.560;10.062;2023-01-29T04:31:26;9.20;;;8.30;;
9972;SDS011;5027;53.560;10.062;2023-01-29T04:33:58;9.13;;;8.23;;
9972;SDS011;5027;53.560;10.062;2023-01-29T04:37:09;10.43;;;9.03;;
9972;SDS011;5027;53.560;10.062;2023-01-29T04:39:48;12.67;;;8.93;;
9972;SDS011;5027;53.560;10.062;2023-01-29T04:45:06;11.23;;;8.67;;
9972;SDS011;5027;53.560;10.062;2023-01-29T04:48:01;11.30;;;9.27;;
9972;SDS011;5027;53.560;10.062;2023-01-29T04:53:43;11.43;;;9.50;;
9972;SDS011;5027;53.560;10.062;2023-01-29T04:56:34;10.77;;;9.67;;
9972;SDS011;5027;53.560;10.062;2023-01-29T04:59:08;10.90;;;9.63;;
9972;SDS011;5027;53.560;10.062;2023-01-29T05:01:40;11.67;;;9.53;;
9972;SDS011;5027;53.560;10.062;2023-01-29T05:04:08;13.37;;;10.00;;
9972;SDS011;5027;53.560;10.062;2023-01-29T05:06:38;11.23;;;10.07;;
9972;SDS011;5027;53.560;10.062;2023-01-29T05:09:06;10.50;;;9.50;;
9972;SDS011;5027;53.560;10.062;2023-01-29T05:11:34;11.10;;;10.00;;
9972;SDS011;5027;53.560;10.062;2023-01-29T05:14:02;11.57;;;10.10;;
9972;SDS011;5027;53.560;10.062;2023-01-29T05:16:33;11.90;;;9.83;;
9972;SDS011;5027;53.560;10.062;2023-01-29T05:19:10;12.23;;;9.77;;
9972;SDS011;5027;53.560;10.062;2023-01-29T05:21:38;14.23;;;11.13;;
9972;SDS011;5027;53.560;10.062;2023-01-29T05:24:12;10.90;;;9.77;;
9972;SDS011;5027;53.560;10.062;2023-01-29T05:26:42;11.73;;;10.40;;
9972;SDS011;5027;53.560;10.062;2023-01-29T05:29:30;12.30;;;11.00;;
9972;SDS011;5027;53.560;10.062;2023-01-29T05:31:57;11.13;;;10.03;;
9972;SDS011;5027;53.560;10.062;2023-01-29T05:34:23;11.30;;;10.17;;
9972;SDS011;5027;53.560;10.062;2023-01-29T05:36:50;11.97;;;10.70;;
9972;SDS011;5027;53.560;10.062;2023-01-29T05:39:17;12.27;;;11.00;;
9972;SDS011;5027;53.560;10.062;2023-01-29T05:41:44;11.80;;;10.63;;
9972;SDS011;5027;53.560;10.062;2023-01-29T05:44:10;12.07;;;10.87;;
9972;SDS011;5027;53.560;10.062;2023-01-29T05:46:37;12.80;;;11.50;;
9972;SDS011;5027;53.560;10.062;2023-01-29T05:49:04;12.13;;;10.87;;
9972;SDS011;5027;53.560;10.062;2023-01-29T05:51:31;16.03;;;10.83;;
9972;SDS011;5027;53.560;10.062;2023-01-29T05:53:58;13.43;;;12.03;;
9972;SDS011;5027;53.560;10.062;2023-01-29T05:56:24;12.97;;;11.17;;
9972;SDS011;5027;53.560;10.062;2023-01-29T05:58:51;13.27;;;11.90;;
9972;SDS011;5027;53.560;10.062;2023-01-29T06:01:19;12.37;;;11.17;;
9972;SDS011;5027;53.560;10.062;2023-01-29T06:03:47;12.07;;;10.87;;
9972;SDS011;5027;53.560;10.062;2023-01-29T06:06:14;13.73;;;11.97;;
9972;SDS011;5027;53.560;10.062;2023-01-29T06:08:41;12.70;;;11.40;;
9972;SDS011;5027;53.560;10.062;2023-01-29T06:11:09;12.83;;;11.53;;
9972;SDS011;5027;53.560;10.062;2023-01-29T06:13:37;12.33;;;11.20;;
9972;SDS011;5027;53.560;10.062;2023-01-29T06:16:06;12.80;;;11.47;;
9972;SDS011;5027;53.560;10.062;2023-01-29T06:18:34;13.10;;;11.10;;
9972;SDS011;5027;53.560;10.062;2023-01-29T06:21:02;13.83;;;11.93;;
9972;SDS011;5027;53.560;10.062;2023-01-29T06:23:30;12.57;;;11.27;;
9972;SDS011;5027;53.560;10.062;2023-01-29T06:26:01;12.40;;;11.20;;
9972;SDS011;5027;53.560;10.062;2023-01-29T06:28:29;13.10;;;11.60;;
9972;SDS011;5027;53.560;10.062;2023-01-29T06:30:57;13.10;;;11.43;;
9972;SDS011;5027;53.560;10.062;2023-01-29T06:33:41;12.47;;;11.17;;
9972;SDS011;5027;53.560;10.062;2023-01-29T06:36:08;13.00;;;11.60;;
9972;SDS011;5027;53.560;10.062;2023-01-29T06:38:35;12.87;;;11.53;;
9972;SDS011;5027;53.560;10.062;2023-01-29T06:41:11;13.50;;;12.10;;
9972;SDS011;5027;53.560;10.062;2023-01-29T06:43:39;13.53;;;12.13;;
9972;SDS011;5027;53.560;10.062;2023-01-29T06:46:10;13.33;;;12.03;;
9972;SDS011;5027;53.560;10.062;2023-01-29T06:48:36;12.90;;;11.60;;
9972;SDS011;5027;53.560;10.062;2023-01-29T06:51:04;10.60;;;9.50;;
9972;SDS011;5027;53.560;10.062;2023-01-29T06:53:33;13.33;;;11.97;;
9972;SDS011;5027;53.560;10.062;2023-01-29T06:56:00;14.57;;;11.77;;
9972;SDS011;5027;53.560;10.062;2023-01-29T06:58:27;16.80;;;11.60;;
9972;SDS011;5027;53.560;10.062;2023-01-29T07:01:01;13.43;;;12.10;;
9972;SDS011;5027;53.560;10.062;2023-01-29T07:03:31;16.37;;;12.17;;
9972;SDS011;5027;53.560;10.062;2023-01-29T07:05:58;13.30;;;11.47;;
9972;SDS011;5027;53.560;10.062;2023-01-29T07:08:28;13.07;;;11.70;;
9972;SDS011;5027;53.560;10.062;2023-01-29T07:10:59;13.53;;;12.13;;
9972;SDS011;5027;53.560;10.062;2023-01-29T07:13:26;12.47;;;11.17;;
9972;SDS011;5027;53.560;10.062;2023-01-29T07:15:53;13.30;;;11.90;;
9972;SDS011;5027;53.560;10.062;2023-01-29T07:18:22;13.63;;;12.23;;
9972;SDS011;5027;53.560;10.062;2023-01-29T07:20:49;13.40;;;12.00;;
9972;SDS011;5027;53.560;10.062;2023-01-29T07:23:16;15.27;;;12.07;;
9972;SDS011;5027;53.560;10.062;2023-01-29T07:25:43;12.97;;;11.77;;
9972;SDS011;5027;53.560;10.062;2023-01-29T07:28:10;13.07;;;11.67;;
9972;SDS011;5027;53.560;10.062;2023-01-29T07:30:37;12.57;;;11.37;;
9972;SDS011;5027;53.560;10.062;2023-01-29T07:33:04;13.67;;;12.27;;
9972;SDS011;5027;53.560;10.062;2023-01-29T07:35:36;13.00;;;11.70;;
9972;SDS011;5027;53.560;10.062;2023-01-29T07:38:08;16.67;;;12.07;;
9972;SDS011;5027;53.560;10.062;2023-01-29T07:40:35;13.47;;;12.07;;
9972;SDS011;5027;53.560;10.062;2023-01-29T07:43:03;15.00;;;12.70;;
9972;SDS011;5027;53.560;10.062;2023-01-29T07:45:32;14.40;;;12.13;;
9972;SDS011;5027;53.560;10.062;2023-01-29T07:48:00;14.63;;;13.10;;
9972;SDS011;5027;53.560;10.062;2023-01-29T07:50:29;14.23;;;12.73;;
9972;SDS011;5027;53.560;10.062;2023-01-29T07:52:56;14.47;;;12.90;;
9972;SDS011;5027;53.560;10.062;2023-01-29T07:55:23;16.00;;;14.30;;
9972;SDS011;5027;53.560;10.062;2023-01-29T07:58:02;17.47;;;13.73;;
9972;SDS011;5027;53.560;10.062;2023-01-29T08:00:29;15.97;;;13.80;;
9972;SDS011;5027;53.560;10.062;2023-01-29T08:03:00;15.43;;;13.80;;
9972;SDS011;5027;53.560;10.062;2023-01-29T08:05:28;16.23;;;14.63;;
9972;SDS011;5027;53.560;10.062;2023-01-29T08:07:55;16.43;;;14.73;;
9972;SDS011;5027;53.560;10.062;2023-01-29T08:10:32;16.27;;;14.60;;
9972;SDS011;5027;53.560;10.062;2023-01-29T08:13:03;16.37;;;14.67;;
9972;SDS011;5027;53.560;10.062;2023-01-29T08:15:31;16.10;;;14.57;;
9972;SDS011;5027;53.560;10.062;2023-01-29T08:17:59;20.50;;;16.60;;
9972;SDS011;5027;53.560;10.062;2023-01-29T08:20:27;17.17;;;15.40;;
9972;SDS011;5027;53.560;10.062;2023-01-29T08:23:00;15.57;;;12.90;;
9972;SDS011;5027;53.560;10.062;2023-01-29T08:25:29;18.97;;;16.57;;
9972;SDS011;5027;53.560;10.062;2023-01-29T08:27:56;19.10;;;17.10;;
9972;SDS011;5027;53.560;10.062;2023-01-29T08:30:25;18.83;;;16.93;;
9972;SDS011;5027;53.560;10.062;2023-01-29T08:32:54;19.07;;;17.20;;
9972;SDS011;5027;53.560;10.062;2023-01-29T08:35:21;20.17;;;18.07;;
9972;SDS011;5027;53.560;10.062;2023-01-29T08:37:51;19.70;;;15.13;;
9972;SDS011;5027;53.560;10.062;2023-01-29T08:40:23;20.93;;;18.83;;
9972;SDS011;5027;53.560;10.062;2023-01-29T08:42:51;20.63;;;18.43;;
9972;SDS011;5027;53.560;10.062;2023-01-29T08:45:17;20.87;;;18.70;;
9972;SDS011;5027;53.560;10.062;2023-01-29T08:47:45;21.57;;;19.27;;
9972;SDS011;5027;53.560;10.062;2023-01-29T08:50:12;22.73;;;20.33;;
9972;SDS011;5027;53.560;10.062;2023-01-29T08:52:41;23.30;;;20.83;;
9972;SDS011;5027;53.560;10.062;2023-01-29T08:55:08;24.13;;;21.53;;
9972;SDS011;5027;53.560;10.062;2023-01-29T08:57:35;23.77;;;21.27;;
9972;SDS011;5027;53.560;10.062;2023-01-29T09:00:03;25.53;;;22.53;;
9972;SDS011;5027;53.560;10.062;2023-01-29T09:02:31;26.57;;;23.87;;
9972;SDS011;5027;53.560;10.062;2023-01-29T09:04:58;29.13;;;24.47;;
9972;SDS011;5027;53.560;10.062;2023-01-29T09:07:24;28.33;;;24.50;;
9972;SDS011;5027;53.560;10.062;2023-01-29T09:09:51;28.63;;;25.57;;
9972;SDS011;5027;53.560;10.062;2023-01-29T09:12:18;31.03;;;25.30;;
9972;SDS011;5027;53.560;10.062;2023-01-29T09:14:44;29.73;;;25.20;;
9972;SDS011;5027;53.560;10.062;2023-01-29T09:17:11;29.60;;;26.07;;
9972;SDS011;5027;53.560;10.062;2023-01-29T09:19:37;28.27;;;25.23;;
9972;SDS011;5027;53.560;10.062;2023-01-29T09:22:04;28.30;;;25.20;;
9972;SDS011;5027;53.560;10.062;2023-01-29T09:24:31;32.47;;;27.13;;
9972;SDS011;5027;53.560;10.062;2023-01-29T09:27:00;29.70;;;26.23;;
9972;SDS011;5027;53.560;10.062;2023-01-29T09:29:27;29.10;;;24.97;;
9972;SDS011;5027;53.560;10.062;2023-01-29T09:31:53;30.50;;;26.77;;
9972;SDS011;5027;53.560;10.062;2023-01-29T09:34:20;30.43;;;27.07;;
9972;SDS011;5027;53.560;10.062;2023-01-29T09:36:47;30.73;;;27.43;;
9972;SDS011;5027;53.560;10.062;2023-01-29T09:39:13;15.30;;;13.80;;
9972;SDS011;5027;53.560;10.062;2023-01-29T09:47:11;28.07;;;25.03;;
9972;SDS011;5027;53.560;10.062;2023-01-29T09:49:47;13.30;;;11.90;;
9972;SDS011;5027;53.560;10.062;2023-01-29T09:52:19;19.90;;;17.80;;
9972;SDS011;5027;53.560;10.062;2023-01-29T09:54:58;26.93;;;24.03;;
9972;SDS011;5027;53.560;10.062;2023-01-29T09:57:33;27.17;;;24.27;;
9972;SDS011;5027;53.560;10.062;2023-01-29T10:00:14;27.50;;;24.70;;
9972;SDS011;5027;53.560;10.062;2023-01-29T10:09:11;4.50;;;4.10;;
9972;SDS011;5027;53.560;10.062;2023-01-29T10:12:02;28.73;;;25.73;;
9972;SDS011;5027;53.560;10.062;2023-01-29T10:14:49;27.70;;;24.67;;
9972;SDS011;5027;53.560;10.062;2023-01-29T10:19:53;29.67;;;26.40;;
9972;SDS011;5027;53.560;10.062;2023-01-29T10:25:41;28.97;;;25.97;;
9972;SDS011;5027;53.560;10.062;2023-01-29T10:28:15;28.57;;;25.67;;
9972;SDS011;5027;53.560;10.062;2023-01-29T10:30:50;30.33;;;27.10;;
9972;SDS011;5027;53.560;10.062;2023-01-29T10:36:18;29.47;;;26.37;;
9972;SDS011;5027;53.560;10.062;2023-01-29T10:38:51;22.33;;;20.13;;
9972;SDS011;5027;53.560;10.062;2023-01-29T10:44:00;30.30;;;27.10;;
9972;SDS011;5027;53.560;10.062;2023-01-29T10:49:49;26.47;;;23.67;;
9972;SDS011;5027;53.560;10.062;2023-01-29T10:52:31;6.17;;;5.53;;
9972;SDS011;5027;53.560;10.062;2023-01-29T11:00:58;28.57;;;25.57;;
9972;SDS011;5027;53.560;10.062;2023-01-29T11:03:26;17.03;;;15.27;;
9972;SDS011;5027;53.560;10.062;2023-01-29T11:08:35;13.07;;;11.77;;
9972;SDS011;5027;53.560;10.062;2023-01-29T11:13:43;21.53;;;19.37;;
9972;SDS011;5027;53.560;10.062;2023-01-29T11:16:23;26.47;;;23.17;;
9972;SDS011;5027;53.560;10.062;2023-01-29T11:18:58;10.27;;;9.03;;
9972;SDS011;5027;53.560;10.062;2023-01-29T11:21:27;19.27;;;17.40;;
9972;SDS011;5027;53.560;10.062;2023-01-29T11:24:04;6.37;;;5.77;;
9972;SDS011;5027;53.560;10.062;2023-01-29T11:26:43;5.20;;;4.80;;
9972;SDS011;5027;53.560;10.062;2023-01-29T11:29:46;5.93;;;5.37;;
9972;SDS011;5027;53.560;10.062;2023-01-29T11:32:23;20.83;;;18.20;;
9972;SDS011;5027;53.560;10.062;2023-01-29T11:34:55;21.77;;;19.73;;
9972;SDS011;5027;53.560;10.062;2023-01-29T11:37:36;12.20;;;11.10;;
9972;SDS011;5027;53.560;10.062;2023-01-29T11:40:27;3.87;;;3.50;;
9972;SDS011;5027;53.560;10.062;2023-01-29T11:42:52;8.63;;;6.10;;
9972;SDS011;5027;53.560;10.062;2023-01-29T11:45:26;20.60;;;18.40;;
9972;SDS011;5027;53.560;10.062;2023-01-29T11:47:57;19.40;;;17.53;;
9972;SDS011;5027;53.560;10.062;2023-01-29T11:50:26;22.10;;;18.03;;
9972;SDS011;5027;53.560;10.062;2023-01-29T11:52:55;19.47;;;16.40;;
9972;SDS011;5027;53.560;10.062;2023-01-29T11:55:25;13.33;;;10.57;;
9972;SDS011;5027;53.560;10.062;2023-01-29T11:58:20;9.47;;;7.80;;
9972;SDS011;5027;53.560;10.062;2023-01-29T12:00:53;4.30;;;3.60;;
9972;SDS011;5027;53.560;10.062;2023-01-29T12:06:27;20.23;;;18.13;;
9972;SDS011;5027;53.560;10.062;2023-01-29T12:09:06;6.90;;;6.20;;
9972;SDS011;5027;53.560;10.062;2023-01-29T12:11:36;5.30;;;3.47;;
9972;SDS011;5027;53.560;10.062;2023-01-29T12:14:04;5.20;;;4.70;;
9972;SDS011;5027;53.560;10.062;2023-01-29T12:19:33;10.83;;;9.80;;
9972;SDS011;5027;53.560;10.062;2023-01-29T12:22:17;19.57;;;17.47;;
9972;SDS011;5027;53.560;10.062;2023-01-29T12:25:03;20.20;;;18.13;;
9972;SDS011;5027;53.560;10.062;2023-01-29T12:27:40;17.67;;;15.23;;
9972;SDS011;5027;53.560;10.062;2023-01-29T12:30:18;20.47;;;18.47;;
9972;SDS011;5027;53.560;10.062;2023-01-29T12:32:54;7.97;;;5.83;;
9972;SDS011;5027;53.560;10.062;2023-01-29T12:35:47;21.30;;;19.17;;
9972;SDS011;5027;53.560;10.062;2023-01-29T12:38:20;15.30;;;13.73;;
9972;SDS011;5027;53.560;10.062;2023-01-29T12:40:59;21.70;;;19.43;;
9972;SDS011;5027;53.560;10.062;2023-01-29T12:43:45;21.03;;;18.80;;
9972;SDS011;5027;53.560;10.062;2023-01-29T12:46:30;21.90;;;19.67;;
9972;SDS011;5027;53.560;10.062;2023-01-29T12:49:17;20.97;;;18.77;;
9972;SDS011;5027;53.560;10.062;2023-01-29T12:52:06;16.17;;;13.70;;
9972;SDS011;5027;53.560;10.062;2023-01-29T12:54:40;5.43;;;3.63;;
9972;SDS011;5027;53.560;10.062;2023-01-29T12:57:36;16.13;;;14.43;;
9972;SDS011;5027;53.560;10.062;2023-01-29T13:00:26;19.60;;;17.50;;
9972;SDS011;5027;53.560;10.062;2023-01-29T13:03:02;17.83;;;16.13;;
9972;SDS011;5027;53.560;10.062;2023-01-29T13:05:46;21.67;;;19.00;;
9972;SDS011;5027;53.560;10.062;2023-01-29T13:08:23;21.17;;;19.07;;
9972;SDS011;5027;53.560;10.062;2023-01-29T13:11:11;17.47;;;15.73;;
9972;SDS011;5027;53.560;10.062;2023-01-29T13:16:26;20.90;;;18.80;;
9972;SDS011;5027;53.560;10.062;2023-01-29T13:18:58;21.60;;;19.30;;
9972;SDS011;5027;53.560;10.062;2023-01-29T13:21:43;20.67;;;18.57;;
9972;SDS011;5027;53.560;10.062;2023-01-29T13:24:12;19.77;;;17.77;;
9972;SDS011;5027;53.560;10.062;2023-01-29T13:26:43;10.37;;;9.30;;
9972;SDS011;5027;53.560;10.062;2023-01-29T13:29:24;22.03;;;19.83;;
9972;SDS011;5027;53.560;10.062;2023-01-29T13:31:54;20.07;;;18.07;;
9972;SDS011;5027;53.560;10.062;2023-01-29T13:34:23;18.47;;;16.47;;
9972;SDS011;5027;53.560;10.062;2023-01-29T13:37:03;6.73;;;5.40;;
9972;SDS011;5027;53.560;10.062;2023-01-29T13:39:48;20.33;;;18.13;;
9972;SDS011;5027;53.560;10.062;2023-01-29T13:42:21;20.23;;;18.10;;
9972;SDS011;5027;53.560;10.062;2023-01-29T13:44:52;5.10;;;4.70;;
9972;SDS011;5027;53.560;10.062;2023-01-29T13:47:23;18.67;;;16.77;;
9972;SDS011;5027;53.560;10.062;2023-01-29T13:50:00;20.13;;;17.80;;
9972;SDS011;5027;53.560;10.062;2023-01-29T13:52:39;19.93;;;17.87;;
9972;SDS011;5027;53.560;10.062;2023-01-29T14:00:46;20.57;;;18.37;;
9972;SDS011;5027;53.560;10.062;2023-01-29T14:10:22;20.70;;;18.53;;
9972;SDS011;5027;53.560;10.062;2023-01-29T14:12:53;21.13;;;18.50;;
9972;SDS011;5027;53.560;10.062;2023-01-29T14:15:41;21.00;;;18.90;;
9972;SDS011;5027;53.560;10.062;2023-01-29T14:20:49;23.47;;;20.13;;
9972;SDS011;5027;53.560;10.062;2023-01-29T14:31:56;23.33;;;19.67;;
9972;SDS011;5027;53.560;10.062;2023-01-29T14:34:32;20.93;;;18.93;;
9972;SDS011;5027;53.560;10.062;2023-01-29T14:39:44;22.80;;;20.40;;
9972;SDS011;5027;53.560;10.062;2023-01-29T14:42:20;22.70;;;20.27;;
9972;SDS011;5027;53.560;10.062;2023-01-29T14:44:54;22.50;;;20.20;;
9972;SDS011;5027;53.560;10.062;2023-01-29T14:49:54;21.40;;;19.30;;
9972;SDS011;5027;53.560;10.062;2023-01-29T14:52:34;17.17;;;15.47;;
9972;SDS011;5027;53.560;10.062;2023-01-29T14:55:12;22.00;;;19.77;;
9972;SDS011;5027;53.560;10.062;2023-01-29T14:57:46;16.40;;;14.70;;
9972;SDS011;5027;53.560;10.062;2023-01-29T15:00:24;23.17;;;20.77;;
9972;SDS011;5027;53.560;10.062;2023-01-29T15:02:53;22.33;;;19.50;;
9972;SDS011;5027;53.560;10.062;2023-01-29T15:05:31;23.70;;;20.27;;
9972;SDS011;5027;53.560;10.062;2023-01-29T15:08:07;23.90;;;21.07;;
9972;SDS011;5027;53.560;10.062;2023-01-29T15:10:56;23.03;;;19.67;;
9972;SDS011;5027;53.560;10.062;2023-01-29T15:14:02;19.10;;;17.13;;
9972;SDS011;5027;53.560;10.062;2023-01-29T15:16:58;22.83;;;20.10;;
9972;SDS011;5027;53.560;10.062;2023-01-29T15:19:44;22.27;;;20.00;;
9972;SDS011;5027;53.560;10.062;2023-01-29T15:22:16;23.07;;;20.77;;
9972;SDS011;5027;53.560;10.062;2023-01-29T15:24:45;20.83;;;18.73;;
9972;SDS011;5027;53.560;10.062;2023-01-29T15:27:18;23.20;;;20.83;;
9972;SDS011;5027;53.560;10.062;2023-01-29T15:29:53;23.27;;;20.87;;
9972;SDS011;5027;53.560;10.062;2023-01-29T15:32:25;23.77;;;21.03;;
9972;SDS011;5027;53.560;10.062;2023-01-29T15:34:55;23.13;;;20.80;;
9972;SDS011;5027;53.560;10.062;2023-01-29T15:37:27;23.37;;;20.87;;
9972;SDS011;5027;53.560;10.062;2023-01-29T15:39:57;22.87;;;20.27;;
9972;SDS011;5027;53.560;10.062;2023-01-29T15:42:25;24.87;;;22.20;;
9972;SDS011;5027;53.560;10.062;2023-01-29T15:47:58;24.43;;;21.33;;
9972;SDS011;5027;53.560;10.062;2023-01-29T15:50:30;11.00;;;9.87;;
9972;SDS011;5027;53.560;10.062;2023-01-29T15:53:01;24.57;;;21.97;;
9972;SDS011;5027;53.560;10.062;2023-01-29T15:55:32;23.43;;;20.97;;
9972;SDS011;5027;53.560;10.062;2023-01-29T15:58:00;23.03;;;20.63;;
9972;SDS011;5027;53.560;10.062;2023-01-29T16:00:27;23.10;;;20.67;;
9972;SDS011;5027;53.560;10.062;2023-01-29T16:02:55;22.37;;;19.97;;
9972;SDS011;5027;53.560;10.062;2023-01-29T16:05:25;22.43;;;20.03;;
9972;SDS011;5027;53.560;10.062;2023-01-29T16:07:54;22.23;;;19.93;;
9972;SDS011;5027;53.560;10.062;2023-01-29T16:10:26;17.30;;;15.07;;
9972;SDS011;5027;53.560;10.062;2023-01-29T16:12:55;14.93;;;13.40;;
9972;SDS011;5027;53.560;10.062;2023-01-29T16:15:26;24.00;;;21.50;;
9972;SDS011;5027;53.560;10.062;2023-01-29T16:17:55;22.40;;;20.00;;
9972;SDS011;5027;53.560;10.062;2023-01-29T16:20:29;21.03;;;18.93;;
9972;SDS011;5027;53.560;10.062;2023-01-29T16:23:20;23.50;;;19.67;;
9972;SDS011;5027;53.560;10.062;2023-01-29T16:25:54;22.67;;;19.57;;
9972;SDS011;5027;53.560;10.062;2023-01-29T16:28:26;20.57;;;18.40;;
9972;SDS011;5027;53.560;10.062;2023-01-29T16:30:54;21.53;;;19.23;;
9972;SDS011;5027;53.560;10.062;2023-01-29T16:33:27;21.37;;;19.03;;
9972;SDS011;5027;53.560;10.062;2023-01-29T16:36:02;21.90;;;19.60;;
9972;SDS011;5027;53.560;10.062;2023-01-29T16:38:36;23.40;;;21.00;;
9972;SDS011;5027;53.560;10.062;2023-01-29T16:43:53;23.23;;;20.77;;
9972;SDS011;5027;53.560;10.062;2023-01-29T16:49:41;26.53;;;23.47;;
9972;SDS011;5027;53.560;10.062;2023-01-29T16:52:18;21.00;;;18.73;;
9972;SDS011;5027;53.560;10.062;2023-01-29T16:54:48;25.00;;;21.27;;
9972;SDS011;5027;53.560;10.062;2023-01-29T16:57:20;23.77;;;21.30;;
9972;SDS011;5027;53.560;10.062;2023-01-29T16:59:51;21.47;;;19.27;;
9972;SDS011;5027;53.560;10.062;2023-01-29T17:02:22;23.50;;;20.97;;
9972;SDS011;5027;53.560;10.062;2023-01-29T17:04:52;22.07;;;19.77;;
9972;SDS011;5027;53.560;10.062;2023-01-29T17:07:22;24.57;;;21.97;;
9972;SDS011;5027;53.560;10.062;2023-01-29T17:09:50;39.47;;;31.13;;